sensor_id;sensor_type;location;lat;lon;timestamp;temperature;humidity
27026;DHT22;14565;48.626;8.978;2023-12-20T00:00:58;5.10;99.90
27026;DHT22;14565;48.626;8.978;2023-12-20T00:03:24;5.00;99.90
27026;DHT22;14565;48.626;8.978;2023-12-20T00:05:49;5.10;99.90
27026;DHT22;14565;48.626;8.978;2023-12-20T00:08:16;5.00;99.90
27026;DHT22;14565;48.626;8.978;2023-12-20T00:10:42;5.10;99.90
27026;DHT22;14565;48.626;8.978;2023-12-20T00:13:08;5.20;99.90
27026;DHT22;14565;48.626;8.978;2023-12-20T00:15:35;5.10;99.90
27026;DHT22;14565;48.626;8.978;2023-12-20T00:18:01;5.00;99.90
27026;DHT22;14565;48.626;8.978;2023-12-20T00:20:27;5.00;99.90
27026;DHT22;14565;48.626;8.978;2023-12-20T00:22:56;5.00;99.90
27026;DHT22;14565;48.626;8.978;2023-12-20T00:25:23;5.00;99.90
27026;DHT22;14565;48.626;8.978;2023-12-20T00:27:49;5.00;99.90
27026;DHT22;14565;48.626;8.978;2023-12-20T00:30:15;4.90;99.90
27026;DHT22;14565;48.626;8.978;2023-12-20T00:32:40;4.90;99.90
27026;DHT22;14565;48.626;8.978;2023-12-20T00:35:15;4.90;99.90
27026;DHT22;14565;48.626;8.978;2023-12-20T00:37:41;4.90;99.90
27026;DHT22;14565;48.626;8.978;2023-12-20T00:40:08;4.90;99.90
27026;DHT22;14565;48.626;8.978;2023-12-20T00:42:34;4.90;99.90
27026;DHT22;14565;48.626;8.978;2023-12-20T00:45:00;4.90;99.90
27026;DHT22;14565;48.626;8.978;2023-12-20T00:47:26;4.90;99.90
27026;DHT22;14565;48.626;8.978;2023-12-20T00:49:52;4.90;99.90
27026;DHT22;14565;48.626;8.978;2023-12-20T00:52:18;4.80;99.90
27026;DHT22;14565;48.626;8.978;2023-12-20T00:54:44;4.80;99.90
27026;DHT22;14565;48.626;8.978;2023-12-20T00:57:10;4.80;99.90
27026;DHT22;14565;48.626;8.978;2023-12-20T00:59:35;4.80;99.90
27026;DHT22;14565;48.626;8.978;2023-12-20T01:02:01;4.80;99.90
27026;DHT22;14565;48.626;8.978;2023-12-20T01:04:27;4.70;99.90
27026;DHT22;14565;48.626;8.978;2023-12-20T01:06:53;4.70;99.90
27026;DHT22;14565;48.626;8.978;2023-12-20T01:09:19;4.70;99.90
27026;DHT22;14565;48.626;8.978;2023-12-20T01:11:45;4.70;99.90
27026;DHT22;14565;48.626;8.978;2023-12-20T01:14:13;4.70;99.90
27026;DHT22;14565;48.626;8.978;2023-12-20T01:16:39;4.70;99.90
27026;DHT22;14565;48.626;8.978;2023-12-20T01:19:04;4.70;99.90
27026;DHT22;14565;48.626;8.978;2023-12-20T01:21:30;4.60;99.90
27026;DHT22;14565;48.626;8.978;2023-12-20T01:23:56;4.70;99.90
27026;DHT22;14565;48.626;8.978;2023-12-20T01:26:21;4.60;99.90
27026;DHT22;14565;48.626;8.978;2023-12-20T01:28:47;4.60;99.90
27026;DHT22;14565;48.626;8.978;2023-12-20T01:31:13;4.60;99.90
27026;DHT22;14565;48.626;8.978;2023-12-20T01:33:38;4.60;99.90
27026;DHT22;14565;48.626;8.978;2023-12-20T01:36:04;4.60;99.90
27026;DHT22;14565;48.626;8.978;2023-12-20T01:38:30;4.50;99.90
27026;DHT22;14565;48.626;8.978;2023-12-20T01:40:56;4.50;99.90
27026;DHT22;14565;48.626;8.978;2023-12-20T01:43:21;4.50;99.90
27026;DHT22;14565;48.626;8.978;2023-12-20T01:45:47;4.50;99.90
27026;DHT22;14565;48.626;8.978;2023-12-20T01:48:15;4.50;99.90
27026;DHT22;14565;48.626;8.978;2023-12-20T01:50:44;4.50;99.90
27026;DHT22;14565;48.626;8.978;2023-12-20T01:53:12;4.50;99.90
27026;DHT22;14565;48.626;8.978;2023-12-20T01:55:39;4.50;99.90
27026;DHT22;14565;48.626;8.978;2023-12-20T01:58:06;4.60;99.90
27026;DHT22;14565;48.626;8.978;2023-12-20T02:00:33;4.50;99.90
27026;DHT22;14565;48.626;8.978;2023-12-20T02:03:01;4.60;99.90
27026;DHT22;14565;48.626;8.978;2023-12-20T02:05:28;4.60;99.90
27026;DHT22;14565;48.626;8.978;2023-12-20T02:07:56;4.60;99.90
27026;DHT22;14565;48.626;8.978;2023-12-20T02:10:22;4.60;99.90
27026;DHT22;14565;48.626;8.978;2023-12-20T02:12:48;4.60;99.90
27026;DHT22;14565;48.626;8.978;2023-12-20T02:15:14;4.60;99.90
27026;DHT22;14565;48.626;8.978;2023-12-20T02:17:40;4.60;99.90
27026;DHT22;14565;48.626;8.978;2023-12-20T02:20:06;4.60;99.90
27026;DHT22;14565;48.626;8.978;2023-12-20T02:22:32;4.60;99.90
27026;DHT22;14565;48.626;8.978;2023-12-20T02:24:58;4.60;99.90
27026;DHT22;14565;48.626;8.978;2023-12-20T02:27:23;4.50;99.90
27026;DHT22;14565;48.626;8.978;2023-12-20T02:29:50;4.50;99.90
27026;DHT22;14565;48.626;8.978;2023-12-20T02:32:20;4.50;99.90
27026;DHT22;14565;48.626;8.978;2023-12-20T02:34:47;4.40;99.90
27026;DHT22;14565;48.626;8.978;2023-12-20T02:37:13;4.50;99.90
27026;DHT22;14565;48.626;8.978;2023-12-20T02:39:38;4.50;99.90
27026;DHT22;14565;48.626;8.978;2023-12-20T02:42:04;4.50;99.90
27026;DHT22;14565;48.626;8.978;2023-12-20T02:44:30;4.50;99.90
27026;DHT22;14565;48.626;8.978;2023-12-20T02:46:56;4.50;99.90
27026;DHT22;14565;48.626;8.978;2023-12-20T02:49:22;4.50;99.90
27026;DHT22;14565;48.626;8.978;2023-12-20T02:51:48;4.50;99.90
27026;DHT22;14565;48.626;8.978;2023-12-20T02:54:14;4.60;99.90
27026;DHT22;14565;48.626;8.978;2023-12-20T02:56:39;4.50;99.90
27026;DHT22;14565;48.626;8.978;2023-12-20T02:59:05;4.60;99.90
27026;DHT22;14565;48.626;8.978;2023-12-20T03:01:31;4.60;99.90
27026;DHT22;14565;48.626;8.978;2023-12-20T03:03:57;4.60;99.90
27026;DHT22;14565;48.626;8.978;2023-12-20T03:06:23;4.50;99.90
27026;DHT22;14565;48.626;8.978;2023-12-20T03:08:49;4.60;99.90
27026;DHT22;14565;48.626;8.978;2023-12-20T03:11:16;4.50;99.90
27026;DHT22;14565;48.626;8.978;2023-12-20T03:13:41;4.60;99.90
27026;DHT22;14565;48.626;8.978;2023-12-20T03:16:11;4.60;99.90
27026;DHT22;14565;48.626;8.978;2023-12-20T03:18:37;4.60;99.90
27026;DHT22;14565;48.626;8.978;2023-12-20T03:21:04;4.60;99.90
27026;DHT22;14565;48.626;8.978;2023-12-20T03:23:30;4.50;99.90
27026;DHT22;14565;48.626;8.978;2023-12-20T03:25:58;4.50;99.90
27026;DHT22;14565;48.626;8.978;2023-12-20T03:28:23;4.60;99.90
27026;DHT22;14565;48.626;8.978;2023-12-20T03:30:49;4.50;99.90
27026;DHT22;14565;48.626;8.978;2023-12-20T03:33:15;4.50;99.90
27026;DHT22;14565;48.626;8.978;2023-12-20T03:35:41;4.50;99.90
27026;DHT22;14565;48.626;8.978;2023-12-20T03:38:07;4.50;99.90
27026;DHT22;14565;48.626;8.978;2023-12-20T03:40:33;4.50;99.90
27026;DHT22;14565;48.626;8.978;2023-12-20T03:42:58;4.50;99.90
27026;DHT22;14565;48.626;8.978;2023-12-20T03:45:24;4.50;99.90
27026;DHT22;14565;48.626;8.978;2023-12-20T03:47:51;4.50;99.90
27026;DHT22;14565;48.626;8.978;2023-12-20T03:50:28;4.50;99.90
27026;DHT22;14565;48.626;8.978;2023-12-20T03:52:54;4.40;99.90
27026;DHT22;14565;48.626;8.978;2023-12-20T03:55:20;4.40;99.90
27026;DHT22;14565;48.626;8.978;2023-12-20T03:57:45;4.40;99.90
27026;DHT22;14565;48.626;8.978;2023-12-20T04:00:11;4.40;99.90
27026;DHT22;14565;48.626;8.978;2023-12-20T04:02:38;4.40;99.90
27026;DHT22;14565;48.626;8.978;2023-12-20T04:05:04;4.40;99.90
27026;DHT22;14565;48.626;8.978;2023-12-20T04:07:30;4.40;99.90
27026;DHT22;14565;48.626;8.978;2023-12-20T04:09:56;4.30;99.90
27026;DHT22;14565;48.626;8.978;2023-12-20T04:12:22;4.40;99.90
27026;DHT22;14565;48.626;8.978;2023-12-20T04:14:47;4.30;99.90
27026;DHT22;14565;48.626;8.978;2023-12-20T04:17:14;4.30;99.90
27026;DHT22;14565;48.626;8.978;2023-12-20T04:19:41;4.20;99.90
27026;DHT22;14565;48.626;8.978;2023-12-20T04:22:07;4.20;99.90
27026;DHT22;14565;48.626;8.978;2023-12-20T04:24:33;4.30;99.90
27026;DHT22;14565;48.626;8.978;2023-12-20T04:26:58;4.20;99.90
27026;DHT22;14565;48.626;8.978;2023-12-20T04:29:24;4.20;99.90
27026;DHT22;14565;48.626;8.978;2023-12-20T04:31:49;4.20;99.90
27026;DHT22;14565;48.626;8.978;2023-12-20T04:34:17;4.20;99.90
27026;DHT22;14565;48.626;8.978;2023-12-20T04:36:43;4.10;99.90
27026;DHT22;14565;48.626;8.978;2023-12-20T04:39:12;4.10;99.90
27026;DHT22;14565;48.626;8.978;2023-12-20T04:41:38;4.00;99.90
27026;DHT22;14565;48.626;8.978;2023-12-20T04:44:04;4.10;99.90
27026;DHT22;14565;48.626;8.978;2023-12-20T04:46:29;4.10;99.90
27026;DHT22;14565;48.626;8.978;2023-12-20T04:48:55;4.10;99.90
27026;DHT22;14565;48.626;8.978;2023-12-20T04:51:21;4.10;99.90
27026;DHT22;14565;48.626;8.978;2023-12-20T04:53:47;4.10;99.90
27026;DHT22;14565;48.626;8.978;2023-12-20T04:56:13;4.10;99.90
27026;DHT22;14565;48.626;8.978;2023-12-20T04:58:38;4.20;99.90
27026;DHT22;14565;48.626;8.978;2023-12-20T05:01:06;4.10;99.90
27026;DHT22;14565;48.626;8.978;2023-12-20T05:03:32;4.10;99.90
27026;DHT22;14565;48.626;8.978;2023-12-20T05:05:58;4.10;99.90
27026;DHT22;14565;48.626;8.978;2023-12-20T05:08:23;4.10;99.90
27026;DHT22;14565;48.626;8.978;2023-12-20T05:10:51;4.10;99.90
27026;DHT22;14565;48.626;8.978;2023-12-20T05:13:16;4.10;99.90
27026;DHT22;14565;48.626;8.978;2023-12-20T05:15:42;4.10;99.90
27026;DHT22;14565;48.626;8.978;2023-12-20T05:18:08;4.10;99.90
27026;DHT22;14565;48.626;8.978;2023-12-20T05:20:33;4.10;99.90
27026;DHT22;14565;48.626;8.978;2023-12-20T05:22:59;4.20;99.90
27026;DHT22;14565;48.626;8.978;2023-12-20T05:25:24;4.20;99.90
27026;DHT22;14565;48.626;8.978;2023-12-20T05:27:50;4.20;99.90
27026;DHT22;14565;48.626;8.978;2023-12-20T05:30:16;4.10;99.90
27026;DHT22;14565;48.626;8.978;2023-12-20T05:32:42;4.20;99.90
27026;DHT22;14565;48.626;8.978;2023-12-20T05:35:07;4.10;99.90
27026;DHT22;14565;48.626;8.978;2023-12-20T05:37:33;4.20;99.90
27026;DHT22;14565;48.626;8.978;2023-12-20T05:39:59;4.10;99.90
27026;DHT22;14565;48.626;8.978;2023-12-20T05:42:25;4.20;99.90
27026;DHT22;14565;48.626;8.978;2023-12-20T05:44:50;4.10;99.90
27026;DHT22;14565;48.626;8.978;2023-12-20T05:47:16;4.10;99.90
27026;DHT22;14565;48.626;8.978;2023-12-20T05:49:43;4.10;99.90
27026;DHT22;14565;48.626;8.978;2023-12-20T05:52:09;4.10;99.90
27026;DHT22;14565;48.626;8.978;2023-12-20T05:54:34;4.10;99.90
27026;DHT22;14565;48.626;8.978;2023-12-20T05:57:00;4.20;99.90
27026;DHT22;14565;48.626;8.978;2023-12-20T05:59:26;4.20;99.90
27026;DHT22;14565;48.626;8.978;2023-12-20T06:01:52;4.10;99.90
27026;DHT22;14565;48.626;8.978;2023-12-20T06:04:18;4.10;99.90
27026;DHT22;14565;48.626;8.978;2023-12-20T06:06:44;4.10;99.90
27026;DHT22;14565;48.626;8.978;2023-12-20T06:09:10;4.10;99.90
27026;DHT22;14565;48.626;8.978;2023-12-20T06:11:35;4.00;99.90
27026;DHT22;14565;48.626;8.978;2023-12-20T06:14:01;4.00;99.90
27026;DHT22;14565;48.626;8.978;2023-12-20T06:16:27;4.10;99.90
27026;DHT22;14565;48.626;8.978;2023-12-20T06:18:54;4.10;99.90
27026;DHT22;14565;48.626;8.978;2023-12-20T06:21:20;4.10;99.90
27026;DHT22;14565;48.626;8.978;2023-12-20T06:23:45;4.10;99.90
27026;DHT22;14565;48.626;8.978;2023-12-20T06:26:11;4.00;99.90
27026;DHT22;14565;48.626;8.978;2023-12-20T06:28:36;4.10;99.90
27026;DHT22;14565;48.626;8.978;2023-12-20T06:31:02;4.10;99.90
27026;DHT22;14565;48.626;8.978;2023-12-20T06:33:29;4.10;99.90
27026;DHT22;14565;48.626;8.978;2023-12-20T06:35:56;4.10;99.90
27026;DHT22;14565;48.626;8.978;2023-12-20T06:38:22;4.10;99.90
27026;DHT22;14565;48.626;8.978;2023-12-20T06:40:48;4.00;99.90
27026;DHT22;14565;48.626;8.978;2023-12-20T06:43:14;4.10;99.90
27026;DHT22;14565;48.626;8.978;2023-12-20T06:45:39;4.10;99.90
27026;DHT22;14565;48.626;8.978;2023-12-20T06:48:06;4.00;99.90
27026;DHT22;14565;48.626;8.978;2023-12-20T06:50:32;4.00;99.90
27026;DHT22;14565;48.626;8.978;2023-12-20T06:52:58;4.00;99.90
27026;DHT22;14565;48.626;8.978;2023-12-20T06:55:23;4.00;99.90
27026;DHT22;14565;48.626;8.978;2023-12-20T06:57:49;3.90;99.90
27026;DHT22;14565;48.626;8.978;2023-12-20T07:00:15;4.00;99.90
27026;DHT22;14565;48.626;8.978;2023-12-20T07:02:41;4.00;99.90
27026;DHT22;14565;48.626;8.978;2023-12-20T07:05:07;4.00;99.90
27026;DHT22;14565;48.626;8.978;2023-12-20T07:07:32;4.00;99.90
27026;DHT22;14565;48.626;8.978;2023-12-20T07:09:59;3.90;99.90
27026;DHT22;14565;48.626;8.978;2023-12-20T07:12:25;4.00;99.90
27026;DHT22;14565;48.626;8.978;2023-12-20T07:14:50;3.90;99.90
27026;DHT22;14565;48.626;8.978;2023-12-20T07:17:16;4.00;99.90
27026;DHT22;14565;48.626;8.978;2023-12-20T07:19:42;4.10;99.90
27026;DHT22;14565;48.626;8.978;2023-12-20T07:22:08;4.00;99.90
27026;DHT22;14565;48.626;8.978;2023-12-20T07:24:34;4.10;99.90
27026;DHT22;14565;48.626;8.978;2023-12-20T07:27:00;4.10;99.90
27026;DHT22;14565;48.626;8.978;2023-12-20T07:29:26;4.10;99.90
27026;DHT22;14565;48.626;8.978;2023-12-20T07:31:53;4.20;99.90
27026;DHT22;14565;48.626;8.978;2023-12-20T07:34:20;4.20;99.90
27026;DHT22;14565;48.626;8.978;2023-12-20T07:36:46;4.40;99.90
27026;DHT22;14565;48.626;8.978;2023-12-20T07:39:12;4.40;99.90
27026;DHT22;14565;48.626;8.978;2023-12-20T07:41:38;4.30;99.90
27026;DHT22;14565;48.626;8.978;2023-12-20T07:44:07;4.40;99.90
27026;DHT22;14565;48.626;8.978;2023-12-20T07:46:34;4.40;99.90
27026;DHT22;14565;48.626;8.978;2023-12-20T07:48:59;4.40;99.90
27026;DHT22;14565;48.626;8.978;2023-12-20T07:51:25;4.40;99.90
27026;DHT22;14565;48.626;8.978;2023-12-20T07:53:52;4.40;99.90
27026;DHT22;14565;48.626;8.978;2023-12-20T07:56:19;4.30;99.90
27026;DHT22;14565;48.626;8.978;2023-12-20T07:58:46;4.40;99.90
27026;DHT22;14565;48.626;8.978;2023-12-20T08:01:15;4.40;99.90
27026;DHT22;14565;48.626;8.978;2023-12-20T08:03:42;4.40;99.90
27026;DHT22;14565;48.626;8.978;2023-12-20T08:06:08;4.40;99.90
27026;DHT22;14565;48.626;8.978;2023-12-20T08:08:34;4.40;99.90
27026;DHT22;14565;48.626;8.978;2023-12-20T08:10:59;4.40;99.90
27026;DHT22;14565;48.626;8.978;2023-12-20T08:13:27;4.40;99.90
27026;DHT22;14565;48.626;8.978;2023-12-20T08:15:53;4.40;99.90
27026;DHT22;14565;48.626;8.978;2023-12-20T08:18:19;4.40;99.90
27026;DHT22;14565;48.626;8.978;2023-12-20T08:20:45;4.40;99.90
27026;DHT22;14565;48.626;8.978;2023-12-20T08:23:10;4.40;99.90
27026;DHT22;14565;48.626;8.978;2023-12-20T08:25:36;4.50;99.90
27026;DHT22;14565;48.626;8.978;2023-12-20T08:28:04;4.50;99.90
27026;DHT22;14565;48.626;8.978;2023-12-20T08:30:30;4.40;99.90
27026;DHT22;14565;48.626;8.978;2023-12-20T08:32:57;4.40;99.90
27026;DHT22;14565;48.626;8.978;2023-12-20T08:35:22;4.40;99.90
27026;DHT22;14565;48.626;8.978;2023-12-20T08:37:49;4.50;99.90
27026;DHT22;14565;48.626;8.978;2023-12-20T08:40:15;4.40;99.90
27026;DHT22;14565;48.626;8.978;2023-12-20T08:42:41;4.50;99.90
27026;DHT22;14565;48.626;8.978;2023-12-20T08:45:07;4.50;99.90
27026;DHT22;14565;48.626;8.978;2023-12-20T08:47:33;4.40;99.90
27026;DHT22;14565;48.626;8.978;2023-12-20T08:49:59;4.40;99.90
27026;DHT22;14565;48.626;8.978;2023-12-20T08:52:26;4.40;99.90
27026;DHT22;14565;48.626;8.978;2023-12-20T08:54:53;4.30;99.90
27026;DHT22;14565;48.626;8.978;2023-12-20T08:57:22;4.30;99.90
27026;DHT22;14565;48.626;8.978;2023-12-20T08:59:49;4.30;99.90
27026;DHT22;14565;48.626;8.978;2023-12-20T09:02:16;4.30;99.90
27026;DHT22;14565;48.626;8.978;2023-12-20T09:04:42;4.20;99.90
27026;DHT22;14565;48.626;8.978;2023-12-20T09:07:21;4.30;99.90
27026;DHT22;14565;48.626;8.978;2023-12-20T09:09:47;4.20;99.90
27026;DHT22;14565;48.626;8.978;2023-12-20T09:12:13;4.10;99.90
27026;DHT22;14565;48.626;8.978;2023-12-20T09:14:38;4.20;99.90
27026;DHT22;14565;48.626;8.978;2023-12-20T09:17:04;4.10;99.90
27026;DHT22;14565;48.626;8.978;2023-12-20T09:19:30;4.10;99.90
27026;DHT22;14565;48.626;8.978;2023-12-20T09:21:56;4.10;99.90
27026;DHT22;14565;48.626;8.978;2023-12-20T09:24:21;4.10;99.90
27026;DHT22;14565;48.626;8.978;2023-12-20T09:26:47;4.10;99.90
27026;DHT22;14565;48.626;8.978;2023-12-20T09:29:13;4.10;99.90
27026;DHT22;14565;48.626;8.978;2023-12-20T09:31:41;4.10;99.90
27026;DHT22;14565;48.626;8.978;2023-12-20T09:34:09;4.20;99.90
27026;DHT22;14565;48.626;8.978;2023-12-20T09:36:34;4.40;99.90
27026;DHT22;14565;48.626;8.978;2023-12-20T09:39:01;4.50;99.90
27026;DHT22;14565;48.626;8.978;2023-12-20T09:41:29;4.70;99.90
27026;DHT22;14565;48.626;8.978;2023-12-20T09:44:02;5.00;99.90
27026;DHT22;14565;48.626;8.978;2023-12-20T09:46:29;5.20;99.90
27026;DHT22;14565;48.626;8.978;2023-12-20T09:48:59;5.50;99.90
27026;DHT22;14565;48.626;8.978;2023-12-20T09:51:29;5.60;99.90
27026;DHT22;14565;48.626;8.978;2023-12-20T09:53:56;5.70;99.90
27026;DHT22;14565;48.626;8.978;2023-12-20T09:56:23;5.50;99.90
27026;DHT22;14565;48.626;8.978;2023-12-20T09:58:50;5.50;99.90
27026;DHT22;14565;48.626;8.978;2023-12-20T10:01:16;5.60;99.90
27026;DHT22;14565;48.626;8.978;2023-12-20T10:03:42;5.40;99.90
27026;DHT22;14565;48.626;8.978;2023-12-20T10:06:08;5.20;99.90
27026;DHT22;14565;48.626;8.978;2023-12-20T10:08:34;4.90;99.90
27026;DHT22;14565;48.626;8.978;2023-12-20T10:11:01;4.90;99.90
27026;DHT22;14565;48.626;8.978;2023-12-20T10:13:29;4.90;99.90
27026;DHT22;14565;48.626;8.978;2023-12-20T10:15:55;4.90;99.90
27026;DHT22;14565;48.626;8.978;2023-12-20T10:18:22;4.90;99.90
27026;DHT22;14565;48.626;8.978;2023-12-20T10:20:48;5.00;99.90
27026;DHT22;14565;48.626;8.978;2023-12-20T10:23:15;5.20;99.90
27026;DHT22;14565;48.626;8.978;2023-12-20T10:25:41;5.20;99.90
27026;DHT22;14565;48.626;8.978;2023-12-20T10:30:36;5.40;99.90
27026;DHT22;14565;48.626;8.978;2023-12-20T10:33:03;5.40;99.90
27026;DHT22;14565;48.626;8.978;2023-12-20T10:35:30;5.30;99.90
27026;DHT22;14565;48.626;8.978;2023-12-20T10:37:56;5.20;99.90
27026;DHT22;14565;48.626;8.978;2023-12-20T10:40:25;5.50;99.90
27026;DHT22;14565;48.626;8.978;2023-12-20T10:42:53;5.50;99.90
27026;DHT22;14565;48.626;8.978;2023-12-20T10:45:19;5.50;99.90
27026;DHT22;14565;48.626;8.978;2023-12-20T10:47:46;5.50;99.90
27026;DHT22;14565;48.626;8.978;2023-12-20T10:50:12;5.40;99.90
27026;DHT22;14565;48.626;8.978;2023-12-20T10:52:40;5.20;99.90
27026;DHT22;14565;48.626;8.978;2023-12-20T10:55:07;5.10;99.90
27026;DHT22;14565;48.626;8.978;2023-12-20T10:57:33;5.10;99.90
27026;DHT22;14565;48.626;8.978;2023-12-20T11:00:01;5.10;99.90
27026;DHT22;14565;48.626;8.978;2023-12-20T11:02:38;5.20;99.90
27026;DHT22;14565;48.626;8.978;2023-12-20T11:05:12;5.10;99.90
27026;DHT22;14565;48.626;8.978;2023-12-20T11:07:47;5.10;99.90
27026;DHT22;14565;48.626;8.978;2023-12-20T11:10:28;5.10;99.90
27026;DHT22;14565;48.626;8.978;2023-12-20T11:15:28;5.10;99.90
27026;DHT22;14565;48.626;8.978;2023-12-20T11:17:55;5.20;99.90
27026;DHT22;14565;48.626;8.978;2023-12-20T11:20:24;5.20;99.90
27026;DHT22;14565;48.626;8.978;2023-12-20T11:23:00;5.20;99.90
27026;DHT22;14565;48.626;8.978;2023-12-20T11:25:26;5.10;99.90
27026;DHT22;14565;48.626;8.978;2023-12-20T11:28:09;5.10;99.90
27026;DHT22;14565;48.626;8.978;2023-12-20T11:30:55;5.00;99.90
27026;DHT22;14565;48.626;8.978;2023-12-20T11:33:40;5.10;99.90
27026;DHT22;14565;48.626;8.978;2023-12-20T11:36:13;5.00;99.90
27026;DHT22;14565;48.626;8.978;2023-12-20T11:38:57;4.90;99.90
27026;DHT22;14565;48.626;8.978;2023-12-20T11:41:26;4.90;99.90
27026;DHT22;14565;48.626;8.978;2023-12-20T11:43:56;5.00;99.90
27026;DHT22;14565;48.626;8.978;2023-12-20T11:46:22;5.10;99.90
27026;DHT22;14565;48.626;8.978;2023-12-20T11:48:48;5.00;99.90
27026;DHT22;14565;48.626;8.978;2023-12-20T11:51:14;4.90;99.90
27026;DHT22;14565;48.626;8.978;2023-12-20T11:53:40;5.00;99.90
27026;DHT22;14565;48.626;8.978;2023-12-20T11:56:07;4.90;99.90
27026;DHT22;14565;48.626;8.978;2023-12-20T11:58:36;4.80;99.90
27026;DHT22;14565;48.626;8.978;2023-12-20T12:01:02;4.90;99.90
27026;DHT22;14565;48.626;8.978;2023-12-20T12:03:29;4.90;99.90
27026;DHT22;14565;48.626;8.978;2023-12-20T12:05:55;4.90;99.90
27026;DHT22;14565;48.626;8.978;2023-12-20T12:08:21;4.80;99.90
27026;DHT22;14565;48.626;8.978;2023-12-20T12:10:47;4.80;99.90
27026;DHT22;14565;48.626;8.978;2023-12-20T12:13:13;4.90;99.90
27026;DHT22;14565;48.626;8.978;2023-12-20T12:15:43;4.80;99.90
27026;DHT22;14565;48.626;8.978;2023-12-20T12:18:10;4.80;99.90
27026;DHT22;14565;48.626;8.978;2023-12-20T12:20:36;4.80;99.90
27026;DHT22;14565;48.626;8.978;2023-12-20T12:23:04;4.90;99.90
27026;DHT22;14565;48.626;8.978;2023-12-20T12:25:32;4.90;99.90
27026;DHT22;14565;48.626;8.978;2023-12-20T12:27:58;4.90;99.90
27026;DHT22;14565;48.626;8.978;2023-12-20T12:30:25;4.90;99.90
27026;DHT22;14565;48.626;8.978;2023-12-20T12:32:52;5.00;99.90
27026;DHT22;14565;48.626;8.978;2023-12-20T12:35:18;5.10;99.90
27026;DHT22;14565;48.626;8.978;2023-12-20T12:37:44;5.00;99.90
27026;DHT22;14565;48.626;8.978;2023-12-20T12:40:11;5.00;99.90
27026;DHT22;14565;48.626;8.978;2023-12-20T12:42:41;5.10;99.90
27026;DHT22;14565;48.626;8.978;2023-12-20T12:45:08;5.10;99.90
27026;DHT22;14565;48.626;8.978;2023-12-20T12:47:34;5.10;99.90
27026;DHT22;14565;48.626;8.978;2023-12-20T12:50:01;5.10;99.90
27026;DHT22;14565;48.626;8.978;2023-12-20T12:52:27;5.10;99.90
27026;DHT22;14565;48.626;8.978;2023-12-20T12:54:53;5.00;99.90
27026;DHT22;14565;48.626;8.978;2023-12-20T12:57:19;5.10;99.90
27026;DHT22;14565;48.626;8.978;2023-12-20T12:59:46;5.20;99.90
27026;DHT22;14565;48.626;8.978;2023-12-20T13:02:15;5.40;99.90
27026;DHT22;14565;48.626;8.978;2023-12-20T13:04:41;5.30;99.90
27026;DHT22;14565;48.626;8.978;2023-12-20T13:07:07;5.20;99.90
27026;DHT22;14565;48.626;8.978;2023-12-20T13:09:36;5.10;99.90
27026;DHT22;14565;48.626;8.978;2023-12-20T13:12:01;5.00;99.90
27026;DHT22;14565;48.626;8.978;2023-12-20T13:14:30;5.10;99.90
27026;DHT22;14565;48.626;8.978;2023-12-20T13:16:56;5.10;99.90
27026;DHT22;14565;48.626;8.978;2023-12-20T13:19:21;5.20;99.90
27026;DHT22;14565;48.626;8.978;2023-12-20T13:21:47;5.20;99.90
27026;DHT22;14565;48.626;8.978;2023-12-20T13:24:14;5.30;99.90
27026;DHT22;14565;48.626;8.978;2023-12-20T13:26:39;5.30;99.90
27026;DHT22;14565;48.626;8.978;2023-12-20T13:29:05;5.10;99.90
27026;DHT22;14565;48.626;8.978;2023-12-20T13:31:31;5.00;99.90
27026;DHT22;14565;48.626;8.978;2023-12-20T13:33:56;5.00;99.90
27026;DHT22;14565;48.626;8.978;2023-12-20T13:36:22;5.00;99.90
27026;DHT22;14565;48.626;8.978;2023-12-20T13:38:48;5.10;99.90
27026;DHT22;14565;48.626;8.978;2023-12-20T13:41:13;5.10;99.90
27026;DHT22;14565;48.626;8.978;2023-12-20T13:43:39;5.00;99.90
27026;DHT22;14565;48.626;8.978;2023-12-20T13:46:05;4.90;99.90
27026;DHT22;14565;48.626;8.978;2023-12-20T13:48:30;5.10;99.90
27026;DHT22;14565;48.626;8.978;2023-12-20T13:50:56;5.00;99.90
27026;DHT22;14565;48.626;8.978;2023-12-20T13:53:22;4.80;99.90
27026;DHT22;14565;48.626;8.978;2023-12-20T13:55:47;4.80;99.90
27026;DHT22;14565;48.626;8.978;2023-12-20T13:58:13;4.80;99.90
27026;DHT22;14565;48.626;8.978;2023-12-20T14:00:39;4.80;99.90
27026;DHT22;14565;48.626;8.978;2023-12-20T14:03:05;4.80;99.90
27026;DHT22;14565;48.626;8.978;2023-12-20T14:05:31;4.80;99.90
27026;DHT22;14565;48.626;8.978;2023-12-20T14:07:57;4.80;99.90
27026;DHT22;14565;48.626;8.978;2023-12-20T14:10:25;4.80;99.90
27026;DHT22;14565;48.626;8.978;2023-12-20T14:12:54;4.70;99.90
27026;DHT22;14565;48.626;8.978;2023-12-20T14:15:20;4.70;99.90
27026;DHT22;14565;48.626;8.978;2023-12-20T14:17:46;4.70;99.90
27026;DHT22;14565;48.626;8.978;2023-12-20T14:20:12;4.60;99.90
27026;DHT22;14565;48.626;8.978;2023-12-20T14:22:38;4.60;99.90
27026;DHT22;14565;48.626;8.978;2023-12-20T14:25:04;4.70;99.90
27026;DHT22;14565;48.626;8.978;2023-12-20T14:27:32;4.60;99.90
27026;DHT22;14565;48.626;8.978;2023-12-20T14:29:57;4.50;99.90
27026;DHT22;14565;48.626;8.978;2023-12-20T14:32:24;4.40;99.90
27026;DHT22;14565;48.626;8.978;2023-12-20T14:34:50;4.40;99.90
27026;DHT22;14565;48.626;8.978;2023-12-20T14:37:15;4.30;99.90
27026;DHT22;14565;48.626;8.978;2023-12-20T14:39:42;4.20;99.90
27026;DHT22;14565;48.626;8.978;2023-12-20T14:42:08;4.10;99.90
27026;DHT22;14565;48.626;8.978;2023-12-20T14:44:37;4.00;99.90
27026;DHT22;14565;48.626;8.978;2023-12-20T14:47:03;4.00;99.90
27026;DHT22;14565;48.626;8.978;2023-12-20T14:49:30;4.00;99.90
27026;DHT22;14565;48.626;8.978;2023-12-20T14:51:55;4.10;99.90
27026;DHT22;14565;48.626;8.978;2023-12-20T14:54:21;4.00;99.90
27026;DHT22;14565;48.626;8.978;2023-12-20T14:56:47;4.00;99.90
27026;DHT22;14565;48.626;8.978;2023-12-20T14:59:13;4.00;99.90
27026;DHT22;14565;48.626;8.978;2023-12-20T15:01:39;4.00;99.90
27026;DHT22;14565;48.626;8.978;2023-12-20T15:04:08;3.90;99.90
27026;DHT22;14565;48.626;8.978;2023-12-20T15:06:34;3.90;99.90
27026;DHT22;14565;48.626;8.978;2023-12-20T15:09:01;3.90;99.90
27026;DHT22;14565;48.626;8.978;2023-12-20T15:11:28;3.90;99.90
27026;DHT22;14565;48.626;8.978;2023-12-20T15:13:54;3.90;99.90
27026;DHT22;14565;48.626;8.978;2023-12-20T15:16:24;3.90;99.90
27026;DHT22;14565;48.626;8.978;2023-12-20T15:18:51;3.90;99.90
27026;DHT22;14565;48.626;8.978;2023-12-20T15:21:17;3.90;99.90
27026;DHT22;14565;48.626;8.978;2023-12-20T15:23:43;3.80;99.90
27026;DHT22;14565;48.626;8.978;2023-12-20T15:26:18;3.80;99.90
27026;DHT22;14565;48.626;8.978;2023-12-20T15:28:44;3.70;99.90
27026;DHT22;14565;48.626;8.978;2023-12-20T15:31:10;3.70;99.90
27026;DHT22;14565;48.626;8.978;2023-12-20T15:33:35;3.70;99.90
27026;DHT22;14565;48.626;8.978;2023-12-20T15:36:01;3.70;99.90
27026;DHT22;14565;48.626;8.978;2023-12-20T15:38:27;3.60;99.90
27026;DHT22;14565;48.626;8.978;2023-12-20T15:40:52;3.60;99.90
27026;DHT22;14565;48.626;8.978;2023-12-20T15:43:18;3.60;99.90
27026;DHT22;14565;48.626;8.978;2023-12-20T15:45:43;3.60;99.90